Time;durP1;ratioP1;P1;durP2;ratioP2;P2;SDS_P1;SDS_P2;PMS_P1;PMS_P2;Temp;Humidity;BMP_temperature;BMP_pressure;BME280_temperature;BME280_humidity;BME280_pressure;Samples;Min_cycle;Max_cycle;Signal;HPM_P1;HPM_P2
2021/10/08 00:01:09;;;;;;;25.63;13.63;;;;;;;13.81;97.00;102590.09;5073980;28;20198;-68
2021/10/08 00:03:34;;;;;;;39.53;14.10;;;;;;;13.90;95.41;102587.03;5074446;28;20316;-67
2021/10/08 00:06:00;;;;;;;37.53;13.77;;;;;;;14.02;94.51;102581.19;5075153;28;20203;-68
2021/10/08 00:08:25;;;;;;;23.10;13.97;;;;;;;14.06;95.20;102585.50;5075168;28;20206;-68
2021/10/08 00:10:50;;;;;;;28.13;14.60;;;;;;;14.22;94.78;102582.22;5074291;28;20186;-69
2021/10/08 00:13:15;;;;;;;36.20;15.33;;;;;;;14.21;94.83;102584.03;5074553;28;20232;-71
2021/10/08 00:15:41;;;;;;;31.63;12.80;;;;;;;14.11;94.35;102582.63;5074246;28;20575;-68
2021/10/08 00:18:07;;;;;;;47.13;13.60;;;;;;;14.05;94.12;102583.75;5076882;28;20181;-68
2021/10/08 00:20:32;;;;;;;43.57;13.37;;;;;;;13.94;95.04;102582.44;5072520;28;20175;-68
2021/10/08 00:22:58;;;;;;;25.53;12.23;;;;;;;14.14;95.16;102587.03;5073405;28;20218;-68
2021/10/08 00:25:23;;;;;;;53.30;12.80;;;;;;;14.20;93.42;102586.75;5072277;28;20198;-69
2021/10/08 00:27:48;;;;;;;30.00;12.87;;;;;;;14.18;93.37;102586.84;5072351;28;20568;-69
2021/10/08 00:30:13;;;;;;;26.10;13.03;;;;;;;14.46;93.49;102588.41;5072273;28;20179;-69
2021/10/08 00:32:39;;;;;;;41.80;12.63;;;;;;;14.47;92.69;102569.53;5072217;28;20240;-69
2021/10/08 00:35:04;;;;;;;39.70;14.30;;;;;;;14.66;92.72;102586.63;5073373;28;20181;-69
2021/10/08 00:37:30;;;;;;;99.07;15.43;;;;;;;14.59;93.54;102578.91;5073626;28;20178;-68
2021/10/08 00:39:56;;;;;;;31.33;15.57;;;;;;;14.64;94.40;102580.47;5072158;28;20178;-68
2021/10/08 00:42:22;;;;;;;77.50;15.17;;;;;;;14.45;94.65;102574.09;5072029;28;20191;-68
2021/10/08 00:44:47;;;;;;;40.53;15.37;;;;;;;14.82;93.97;102585.97;5072154;28;20175;-69
2021/10/08 00:47:14;;;;;;;48.07;15.47;;;;;;;14.83;94.09;102582.34;5072043;28;20205;-68
2021/10/08 00:49:39;;;;;;;68.07;15.63;;;;;;;14.57;94.65;102576.28;5072674;28;20199;-68
2021/10/08 00:52:04;;;;;;;52.07;14.60;;;;;;;14.62;95.42;102579.66;5072815;28;20568;-68
2021/10/08 00:54:30;;;;;;;70.73;14.67;;;;;;;14.58;95.53;102594.16;5075848;28;20632;-68
2021/10/08 00:56:58;;;;;;;49.23;14.30;;;;;;;14.75;95.27;102581.81;5073809;28;20205;-69
2021/10/08 00:59:25;;;;;;;92.03;14.10;;;;;;;14.27;97.12;102586.44;5074492;28;20227;-68
2021/10/08 01:01:51;;;;;;;86.93;15.17;;;;;;;14.27;96.55;102588.25;5056869;28;20275;-70
2021/10/08 01:04:16;;;;;;;78.47;14.87;;;;;;;14.23;98.01;102592.88;5075543;28;20679;-69
2021/10/08 01:06:42;;;;;;;134.37;16.13;;;;;;;14.59;96.33;102589.66;5072773;28;20199;-68
2021/10/08 01:09:07;;;;;;;86.70;15.57;;;;;;;14.65;96.49;102590.28;5073145;28;20182;-68
2021/10/08 01:11:32;;;;;;;54.37;15.00;;;;;;;14.79;94.90;102589.66;5073445;28;20324;-69
2021/10/08 01:14:02;;;;;;;100.60;15.77;;;;;;;14.82;94.84;102580.59;5073759;28;20206;-68
2021/10/08 01:16:27;;;;;;;51.20;14.40;;;;;;;14.49;95.76;102578.41;5073172;28;20254;-70
2021/10/08 01:18:52;;;;;;;62.53;14.10;;;;;;;14.21;96.97;102593.88;5071919;28;20228;-68
2021/10/08 01:21:18;;;;;;;88.47;16.00;;;;;;;14.19;98.47;102596.63;5072844;28;20215;-68
2021/10/08 01:23:43;;;;;;;45.87;13.67;;;;;;;14.30;97.61;102596.19;5073049;28;20167;-68
2021/10/08 01:26:08;;;;;;;65.17;14.13;;;;;;;14.13;98.77;102593.31;5071594;28;20183;-68
2021/10/08 01:28:33;;;;;;;43.53;14.87;;;;;;;14.53;95.93;102580.03;5072792;28;20651;-68
2021/10/08 01:30:59;;;;;;;42.03;12.83;;;;;;;14.18;95.63;102588.63;5072773;28;20211;-68
2021/10/08 01:33:24;;;;;;;53.83;14.30;;;;;;;14.43;95.85;102584.03;5072768;28;20169;-68
2021/10/08 01:35:49;;;;;;;35.77;13.50;;;;;;;14.52;95.73;102577.44;5073098;28;20179;-67
2021/10/08 01:38:14;;;;;;;97.77;15.10;;;;;;;14.13;96.67;102578.09;5071415;28;20205;-68
2021/10/08 01:40:40;;;;;;;40.60;14.67;;;;;;;14.36;96.80;102587.88;5072635;28;20206;-68
2021/10/08 01:43:05;;;;;;;166.27;17.77;;;;;;;14.31;95.99;102576.44;5072542;28;20213;-68
2021/10/08 01:45:30;;;;;;;87.53;15.67;;;;;;;13.83;99.37;102577.47;5071453;28;20587;-68
2021/10/08 01:47:56;;;;;;;83.37;15.23;;;;;;;14.15;98.71;102586.09;5054562;28;20244;-68
2021/10/08 01:50:21;;;;;;;101.37;16.43;;;;;;;13.85;99.96;102583.66;5071466;28;20171;-68
2021/10/08 01:52:46;;;;;;;129.53;17.93;;;;;;;14.01;98.03;102581.25;5072475;28;20210;-68
2021/10/08 01:55:12;;;;;;;63.80;15.43;;;;;;;13.98;98.60;102582.25;5071844;28;20183;-68
2021/10/08 01:57:37;;;;;;;26.43;14.77;;;;;;;14.40;97.44;102590.38;5072467;28;20715;-68
2021/10/08 02:00:04;;;;;;;53.67;16.47;;;;;;;14.40;97.25;102585.00;5071325;28;20179;-68
2021/10/08 02:02:29;;;;;;;91.83;16.83;;;;;;;14.22;97.10;102584.88;5072311;28;20537;-68
2021/10/08 02:04:54;;;;;;;106.83;17.73;;;;;;;14.34;96.82;102584.38;5073059;28;20202;-69
2021/10/08 02:07:20;;;;;;;65.67;16.27;;;;;;;14.53;95.50;102577.34;5072220;28;20199;-68
2021/10/08 02:09:45;;;;;;;95.43;17.07;;;;;;;14.30;96.29;102585.44;5072364;28;20179;-68
2021/10/08 02:12:10;;;;;;;73.60;18.13;;;;;;;14.49;97.21;102599.03;5072504;28;20190;-68
2021/10/08 02:14:36;;;;;;;56.20;17.53;;;;;;;14.64;96.48;102588.53;5071173;28;20549;-68
2021/10/08 02:17:01;;;;;;;37.13;16.73;;;;;;;14.65;95.61;102587.59;5072489;28;20246;-68
2021/10/08 02:19:26;;;;;;;42.83;17.50;;;;;;;14.70;95.52;102587.38;5072474;28;20525;-68
2021/10/08 02:21:52;;;;;;;91.00;17.17;;;;;;;14.80;94.60;102582.47;5077631;28;20218;-68
2021/10/08 02:24:17;;;;;;;43.60;16.00;;;;;;;14.82;93.58;102586.84;5079519;28;20167;-68
2021/10/08 02:26:42;;;;;;;44.53;16.77;;;;;;;14.94;93.33;102580.97;5076144;28;20199;-68
2021/10/08 02:29:08;;;;;;;40.63;16.63;;;;;;;14.88;92.87;102572.28;5074647;28;20175;-68
2021/10/08 02:31:34;;;;;;;68.00;16.93;;;;;;;14.43;95.45;102583.16;5074518;28;20248;-68
2021/10/08 02:33:59;;;;;;;25.13;15.40;;;;;;;14.77;94.68;102578.13;5076220;28;20169;-68
2021/10/08 02:36:25;;;;;;;40.07;15.90;;;;;;;14.76;93.99;102580.88;5074595;28;20171;-68
2021/10/08 02:38:50;;;;;;;61.43;16.80;;;;;;;14.67;94.38;102571.38;5075465;28;20261;-68
2021/10/08 02:41:15;;;;;;;21.70;14.97;;;;;;;14.85;94.63;102575.09;5074330;28;20197;-68
2021/10/08 02:43:41;;;;;;;26.57;15.83;;;;;;;14.97;93.22;102563.81;5074314;28;20175;-68
2021/10/08 02:46:07;;;;;;;23.37;15.20;;;;;;;14.87;94.09;102573.25;5074041;28;20687;-68
2021/10/08 02:48:34;;;;;;;31.83;17.30;;;;;;;14.95;92.89;102580.03;5074048;28;20199;-68
2021/10/08 02:50:59;;;;;;;49.40;17.00;;;;;;;14.59;94.17;102579.78;5075507;28;20163;-68
2021/10/08 02:53:24;;;;;;;37.30;16.47;;;;;;;14.65;94.23;102584.91;5075210;28;20181;-68
2021/10/08 02:55:50;;;;;;;46.43;17.37;;;;;;;14.65;94.00;102579.53;5075639;28;20167;-68
2021/10/08 02:58:15;;;;;;;37.90;17.30;;;;;;;14.76;93.25;102580.88;5075124;28;20641;-68
2021/10/08 03:00:40;;;;;;;52.60;16.70;;;;;;;14.41;95.30;102588.56;5075382;28;20220;-69
2021/10/08 03:03:05;;;;;;;41.03;17.87;;;;;;;14.64;94.01;102590.34;5073884;28;20203;-68
2021/10/08 03:05:31;;;;;;;51.57;18.00;;;;;;;14.24;95.86;102591.94;5075468;28;20175;-69
2021/10/08 03:07:56;;;;;;;95.23;18.50;;;;;;;14.33;95.10;102594.25;5075094;28;20695;-69
2021/10/08 03:10:21;;;;;;;37.83;18.47;;;;;;;14.62;93.55;102593.09;5073796;28;20217;-69
2021/10/08 03:12:47;;;;;;;35.60;18.00;;;;;;;14.55;94.61;102604.16;5073732;28;20226;-69
2021/10/08 03:15:13;;;;;;;88.37;18.10;;;;;;;14.51;92.90;102597.16;5075045;28;20263;-68
2021/10/08 03:17:38;;;;;;;65.83;16.57;;;;;;;14.64;92.29;102601.97;5073542;28;20163;-69
2021/10/08 03:20:04;;;;;;;103.00;17.43;;;;;;;14.61;92.04;102604.78;5074092;28;20578;-69
2021/10/08 03:22:30;;;;;;;66.83;17.27;;;;;;;14.38;93.14;102607.50;5073289;28;20213;-67
2021/10/08 03:24:55;;;;;;;26.53;16.80;;;;;;;14.73;93.09;102616.81;5074690;28;20171;-69
2021/10/08 03:27:20;;;;;;;56.10;15.97;;;;;;;14.48;92.36;102613.38;5073808;28;20206;-69
2021/10/08 03:29:46;;;;;;;21.27;14.03;;;;;;;14.55;92.50;102610.41;5073631;28;20655;-70
2021/10/08 03:32:11;;;;;;;60.07;15.70;;;;;;;14.34;92.71;102612.13;5074369;28;20183;-68
2021/10/08 03:34:36;;;;;;;53.50;15.60;;;;;;;14.49;92.56;102616.00;5074445;28;20225;-70
2021/10/08 03:37:05;;;;;;;26.73;14.63;;;;;;;14.47;92.42;102609.81;5074633;28;20549;-68
2021/10/08 03:39:34;;;;;;;41.90;15.43;;;;;;;14.60;91.71;102611.09;5073295;28;20267;-68
2021/10/08 03:41:59;;;;;;;20.90;15.47;;;;;;;14.70;91.66;102608.88;5074430;28;20240;-68
2021/10/08 03:44:28;;;;;;;20.30;15.33;;;;;;;14.70;91.72;102609.75;5073024;28;20175;-68
2021/10/08 03:46:55;;;;;;;20.73;14.80;;;;;;;14.73;91.76;102613.25;5074290;28;20222;-68
2021/10/08 03:49:24;;;;;;;70.03;16.33;;;;;;;14.51;92.51;102619.53;5073766;28;20548;-70
2021/10/08 03:51:51;;;;;;;27.77;14.33;;;;;;;14.69;92.11;102615.19;5073895;28;20202;-70
2021/10/08 03:54:18;;;;;;;45.00;15.17;;;;;;;14.51;92.64;102621.34;5075293;28;20171;-68
2021/10/08 03:56:44;;;;;;;23.07;15.13;;;;;;;14.41;93.78;102623.47;5073465;28;20190;-68
2021/10/08 03:59:10;;;;;;;32.20;14.03;;;;;;;14.26;94.27;102627.69;5075078;28;20230;-68
2021/10/08 04:01:35;;;;;;;64.80;14.80;;;;;;;13.89;95.37;102619.31;5073186;28;20679;-70
2021/10/08 04:04:04;;;;;;;21.20;12.93;;;;;;;14.40;94.22;102627.97;5074250;28;20185;-69
2021/10/08 04:06:30;;;;;;;28.57;13.97;;;;;;;14.17;94.42;102624.50;5072702;28;20174;-68
2021/10/08 04:08:55;;;;;;;27.80;12.43;;;;;;;14.28;94.88;102632.97;5073294;28;20179;-70
2021/10/08 04:11:20;;;;;;;34.20;13.90;;;;;;;14.13;94.52;102628.22;5075331;28;20190;-69
2021/10/08 04:13:46;;;;;;;52.33;14.03;;;;;;;14.39;93.96;102642.34;5072914;28;20525;-70
2021/10/08 04:16:11;;;;;;;37.97;13.33;;;;;;;14.04;94.96;102635.69;5074564;28;20178;-70
2021/10/08 04:18:36;;;;;;;20.97;14.00;;;;;;;14.48;95.03;102642.94;5072601;28;20540;-69
2021/10/08 04:21:03;;;;;;;59.43;14.60;;;;;;;14.53;94.06;102639.16;5072674;28;20183;-69
2021/10/08 04:23:28;;;;;;;18.97;12.80;;;;;;;14.50;94.06;102633.91;5074318;28;20208;-68
2021/10/08 04:25:53;;;;;;;55.60;14.23;;;;;;;14.27;94.64;102637.47;5073872;28;20174;-67
2021/10/08 04:28:19;;;;;;;38.60;13.23;;;;;;;14.35;94.00;102631.78;5072355;28;20567;-69
2021/10/08 04:30:44;;;;;;;33.53;13.77;;;;;;;14.33;95.05;102644.41;5073807;28;20632;-69
2021/10/08 04:33:21;;;;;;;26.73;14.07;;;;;;;14.51;95.16;102648.22;5074475;28;20198;-69
2021/10/08 04:35:47;;;;;;;41.93;14.03;;;;;;;14.19;95.74;102652.16;5072573;28;20170;-68
2021/10/08 04:38:14;;;;;;;22.43;13.63;;;;;;;14.37;95.39;102648.72;5072262;28;20195;-69
2021/10/08 04:40:39;;;;;;;26.10;13.73;;;;;;;14.64;94.18;102650.34;5073449;28;20636;-68
2021/10/08 04:43:05;;;;;;;25.07;14.23;;;;;;;14.63;94.46;102655.78;5071741;28;20198;-69
2021/10/08 04:45:30;;;;;;;26.67;13.60;;;;;;;14.52;94.43;102637.41;5072577;28;20203;-69
2021/10/08 04:47:56;;;;;;;31.70;14.57;;;;;;;14.61;94.06;102647.78;5074213;28;20193;-69
2021/10/08 04:50:22;;;;;;;33.23;14.27;;;;;;;14.54;94.30;102653.47;5055559;28;20194;-68
2021/10/08 04:52:47;;;;;;;55.03;15.87;;;;;;;14.24;95.26;102650.16;5072171;28;20190;-68
2021/10/08 04:55:12;;;;;;;22.37;15.10;;;;;;;14.12;97.65;102661.34;5072183;28;20182;-61
2021/10/08 04:57:37;;;;;;;28.27;16.37;;;;;;;14.51;96.61;102667.91;5074184;28;20246;-63
2021/10/08 05:00:07;;;;;;;43.90;14.27;;;;;;;14.77;94.54;102671.31;5074006;28;20171;-64
2021/10/08 05:02:32;;;;;;;26.53;14.43;;;;;;;14.60;96.36;102669.34;5072248;28;20237;-63
2021/10/08 05:04:58;;;;;;;26.07;14.13;;;;;;;14.61;96.11;102669.28;5073890;28;20179;-63
2021/10/08 05:07:24;;;;;;;22.00;13.57;;;;;;;14.69;95.01;102680.56;5074091;28;20564;-63
2021/10/08 05:09:49;;;;;;;36.20;14.93;;;;;;;14.29;96.13;102672.34;5073711;28;20178;-62
2021/10/08 05:12:14;;;;;;;33.97;15.37;;;;;;;14.55;95.47;102674.91;5074467;28;20191;-62
2021/10/08 05:14:40;;;;;;;31.83;15.00;;;;;;;14.47;95.91;102684.19;5073924;28;20166;-63
2021/10/08 05:17:05;;;;;;;26.10;15.97;;;;;;;14.67;95.37;102685.13;5073911;28;20174;-63
2021/10/08 05:19:30;;;;;;;47.90;16.37;;;;;;;14.53;95.89;102675.91;5073168;28;20583;-67
2021/10/08 05:21:56;;;;;;;39.40;15.70;;;;;;;14.60;96.44;102683.66;5103525;22;20237;-73
2021/10/08 05:24:22;;;;;;;55.57;16.30;;;;;;;14.55;95.92;102679.41;5091944;28;20170;-73
2021/10/08 05:26:47;;;;;;;45.10;16.20;;;;;;;14.65;96.25;102686.13;5092901;28;20194;-73
2021/10/08 05:29:13;;;;;;;28.47;16.53;;;;;;;14.76;95.07;102672.25;5093146;28;20170;-72
2021/10/08 05:31:38;;;;;;;34.73;15.93;;;;;;;14.72;94.85;102674.19;5091745;28;20243;-72
2021/10/08 05:34:03;;;;;;;45.43;16.43;;;;;;;14.68;95.09;102688.69;5074988;28;20178;-73
2021/10/08 05:36:28;;;;;;;38.23;17.27;;;;;;;14.61;96.25;102689.88;5093013;28;20196;-74
2021/10/08 05:38:54;;;;;;;38.93;16.87;;;;;;;14.28;97.38;102681.31;5093600;28;20178;-73
2021/10/08 05:41:19;;;;;;;55.47;16.73;;;;;;;14.38;98.70;102693.44;5092912;28;20181;-73
2021/10/08 05:43:45;;;;;;;51.47;18.17;;;;;;;14.74;96.88;102684.88;5093129;28;20178;-74
2021/10/08 05:46:10;;;;;;;58.13;18.23;;;;;;;14.47;97.92;102689.56;5074865;28;20767;-73
2021/10/08 05:48:35;;;;;;;55.47;17.10;;;;;;;14.35;97.66;102691.75;5057884;28;20194;-73
2021/10/08 05:51:01;;;;;;;31.47;18.20;;;;;;;14.34;100.00;102707.94;5074981;28;20201;-73
2021/10/08 05:53:26;;;;;;;55.97;19.40;;;;;;;14.60;98.79;102713.19;5074285;28;20222;-73
2021/10/08 05:55:51;;;;;;;41.30;18.43;;;;;;;14.46;98.89;102709.28;5076430;28;20174;-73
2021/10/08 05:58:17;;;;;;;46.43;18.43;;;;;;;14.60;96.38;102706.94;5078579;28;20166;-73
2021/10/08 06:00:42;;;;;;;33.57;17.93;;;;;;;14.27;98.34;102706.44;5096943;28;20651;-73
2021/10/08 06:03:07;;;;;;;32.27;18.60;;;;;;;14.66;96.88;102710.25;5061252;28;20635;-72
2021/10/08 06:05:34;;;;;;;31.73;18.00;;;;;;;15.07;95.18;102704.13;5096443;28;20540;-72
2021/10/08 06:08:00;;;;;;;40.13;20.07;;;;;;;15.00;95.16;102709.75;5096377;28;20214;-71
2021/10/08 06:10:25;;;;;;;37.40;17.97;;;;;;;14.87;93.83;102699.59;5078234;28;20162;-75
2021/10/08 06:12:50;;;;;;;40.50;18.33;;;;;;;14.91;94.95;102714.66;5078152;28;20609;-72
2021/10/08 06:15:16;;;;;;;33.30;17.80;;;;;;;14.96;96.56;102724.28;5096380;28;20488;-73
2021/10/08 06:17:41;;;;;;;47.17;18.50;;;;;;;14.96;95.47;102721.59;5061293;28;20276;-73
2021/10/08 06:20:07;;;;;;;57.00;18.87;;;;;;;14.72;96.56;102719.00;5096135;28;20166;-73
2021/10/08 06:22:35;;;;;;;64.43;20.27;;;;;;;14.91;96.61;102725.41;5095729;28;20202;-73
2021/10/08 06:25:00;;;;;;;54.47;19.30;;;;;;;14.32;99.33;102731.31;5096189;28;20174;-73
2021/10/08 06:27:26;;;;;;;46.47;20.23;;;;;;;15.07;95.94;102726.50;5077839;28;20201;-73
2021/10/08 06:29:51;;;;;;;50.43;21.90;;;;;;;14.97;95.71;102730.53;5077848;28;20215;-73
2021/10/08 06:32:16;;;;;;;51.87;20.57;;;;;;;14.63;98.18;102729.19;5095957;28;20273;-73
2021/10/08 06:34:42;;;;;;;40.27;21.60;;;;;;;15.14;96.13;102728.00;5077824;28;20493;-73
2021/10/08 06:37:07;;;;;;;74.70;21.20;;;;;;;14.64;97.62;102725.56;5077771;28;20220;-73
2021/10/08 06:39:32;;;;;;;38.47;21.17;;;;;;;14.87;96.03;102721.09;5095584;28;20177;-71
2021/10/08 06:41:57;;;;;;;63.93;21.83;;;;;;;15.00;95.21;102730.41;5077309;28;20190;-73
2021/10/08 06:44:23;;;;;;;51.27;21.50;;;;;;;14.96;95.63;102731.47;5077627;28;20201;-71
2021/10/08 06:46:48;;;;;;;55.90;22.03;;;;;;;15.29;94.53;102731.88;5077721;28;20657;-73
2021/10/08 06:49:14;;;;;;;31.30;20.43;;;;;;;15.46;94.44;102734.69;5095612;28;20174;-72
2021/10/08 06:51:39;;;;;;;36.90;21.30;;;;;;;15.38;95.16;102739.53;5095498;28;20186;-73
2021/10/08 06:54:04;;;;;;;46.60;21.60;;;;;;;15.31;94.12;102736.25;5095378;28;20171;-72
2021/10/08 06:56:30;;;;;;;47.93;21.67;;;;;;;15.17;95.08;102735.94;5095280;28;20178;-72
2021/10/08 06:58:56;;;;;;;68.33;22.73;;;;;;;15.38;95.61;102728.78;5095166;28;20181;-73
2021/10/08 07:01:21;;;;;;;56.20;21.83;;;;;;;15.30;94.57;102739.00;5060149;28;20174;-72
2021/10/08 07:03:46;;;;;;;45.23;22.73;;;;;;;15.12;96.67;102739.75;5077069;28;20171;-73
2021/10/08 07:06:12;;;;;;;54.33;22.23;;;;;;;15.42;94.26;102737.59;5059659;28;20247;-73
2021/10/08 07:08:37;;;;;;;45.80;21.10;;;;;;;15.44;94.61;102735.69;5076917;28;20200;-73
2021/10/08 07:11:02;;;;;;;72.90;22.63;;;;;;;15.54;93.29;102740.59;5095282;28;20211;-73
2021/10/08 07:13:28;;;;;;;36.97;21.40;;;;;;;15.80;92.88;102744.88;5095114;28;20525;-73
2021/10/08 07:15:53;;;;;;;51.03;22.40;;;;;;;15.68;92.53;102747.25;5095169;28;20257;-73
2021/10/08 07:18:23;;;;;;;36.87;20.93;;;;;;;15.94;91.88;102749.63;5076517;28;20166;-73
2021/10/08 07:20:49;;;;;;;37.30;20.33;;;;;;;16.01;90.67;102747.56;5094757;28;20161;-72
2021/10/08 07:23:15;;;;;;;34.03;20.37;;;;;;;15.71;91.21;102756.06;5076316;28;20206;-73
2021/10/08 07:25:40;;;;;;;35.27;21.67;;;;;;;16.04;91.53;102758.19;5094608;28;20177;-73
2021/10/08 07:28:05;;;;;;;34.73;21.50;;;;;;;15.88;91.93;102755.31;5059616;28;20194;-73
2021/10/08 07:30:31;;;;;;;32.20;19.97;;;;;;;15.54;93.37;102755.88;5094664;28;20174;-73
2021/10/08 07:32:56;;;;;;;32.50;20.60;;;;;;;15.79;92.43;102758.41;5094583;28;20183;-73
2021/10/08 07:35:21;;;;;;;37.00;22.57;;;;;;;15.70;91.79;102750.75;5094538;28;20203;-73
2021/10/08 07:37:47;;;;;;;34.77;23.03;;;;;;;15.97;91.44;102748.63;5077202;28;20166;-74
2021/10/08 07:40:13;;;;;;;36.37;22.10;;;;;;;16.23;90.92;102753.72;5077675;28;20166;-73
2021/10/08 07:42:38;;;;;;;32.37;21.60;;;;;;;16.33;90.46;102754.13;5077026;28;20259;-74
2021/10/08 07:45:07;;;;;;;31.87;21.10;;;;;;;16.47;89.06;102749.88;5094630;28;20648;-72
2021/10/08 07:47:32;;;;;;;31.83;21.73;;;;;;;16.92;87.46;102754.03;5094157;28;20285;-73
2021/10/08 07:49:58;;;;;;;32.70;21.93;;;;;;;16.45;89.08;102745.50;5094295;28;20170;-72
2021/10/08 07:52:23;;;;;;;29.00;19.67;;;;;;;16.74;87.72;102753.09;5076142;28;20193;-72
2021/10/08 07:54:48;;;;;;;31.70;21.97;;;;;;;17.03;87.34;102748.97;5076256;28;20174;-72
2021/10/08 07:57:14;;;;;;;29.67;21.13;;;;;;;17.35;85.65;102746.47;5095082;28;20247;-73
2021/10/08 07:59:39;;;;;;;31.10;20.73;;;;;;;17.47;84.88;102746.72;5076669;28;20559;-73
2021/10/08 08:02:04;;;;;;;26.53;19.73;;;;;;;17.37;85.25;102739.16;5077446;28;20206;-73
2021/10/08 08:04:30;;;;;;;29.80;20.70;;;;;;;17.44;84.67;102736.06;5081844;28;20200;-73
2021/10/08 08:06:55;;;;;;;27.17;19.43;;;;;;;17.67;83.78;102737.59;5097053;28;20194;-72
2021/10/08 08:09:20;;;;;;;28.80;20.13;;;;;;;17.35;84.93;102736.53;5094717;28;20607;-72
2021/10/08 08:11:46;;;;;;;29.30;19.43;;;;;;;17.71;84.57;102752.69;5076027;28;20190;-73
2021/10/08 08:14:11;;;;;;;26.07;18.27;;;;;;;18.07;83.21;102746.28;5059197;28;20170;-73
2021/10/08 08:16:36;;;;;;;26.30;19.17;;;;;;;18.17;82.39;102752.91;5094510;28;20173;-73
2021/10/08 08:19:01;;;;;;;25.77;18.83;;;;;;;18.18;82.34;102749.25;5093374;28;20216;-72
2021/10/08 08:21:27;;;;;;;26.97;20.03;;;;;;;17.43;85.31;102744.22;5093831;28;20659;-71
2021/10/08 08:23:52;;;;;;;25.70;18.97;;;;;;;17.76;84.55;102755.13;5093612;28;20620;-73
2021/10/08 08:26:17;;;;;;;26.77;19.17;;;;;;;17.53;85.09;102759.03;5093507;28;20170;-73
2021/10/08 08:28:43;;;;;;;29.90;20.73;;;;;;;17.79;84.04;102749.56;5093880;28;20545;-72
2021/10/08 08:31:09;;;;;;;30.93;21.33;;;;;;;17.66;84.79;102752.03;5076592;28;20169;-71
2021/10/08 08:33:35;;;;;;;29.50;20.27;;;;;;;17.61;84.44;102747.81;5075634;28;20194;-73
2021/10/08 08:36:02;;;;;;;28.83;20.37;;;;;;;17.74;83.78;102752.53;5093336;28;20639;-73
2021/10/08 08:38:27;;;;;;;31.07;22.40;;;;;;;17.60;84.00;102751.47;5075306;28;20167;-73
2021/10/08 08:40:52;;;;;;;31.93;22.50;;;;;;;17.71;83.80;102747.28;5094115;28;20578;-72
2021/10/08 08:43:18;;;;;;;32.30;22.90;;;;;;;17.13;85.70;102749.41;5075541;28;20190;-72
2021/10/08 08:45:43;;;;;;;30.80;22.27;;;;;;;17.53;85.37;102747.34;5075565;28;20177;-72
2021/10/08 08:48:10;;;;;;;30.10;22.20;;;;;;;17.64;84.98;102747.66;5074788;28;20206;-73
2021/10/08 08:50:44;;;;;;;28.83;21.80;;;;;;;17.68;85.04;102750.16;5075594;28;20166;-73
2021/10/08 08:53:10;;;;;;;35.27;23.30;;;;;;;17.62;85.06;102744.16;5075135;28;20186;-73
2021/10/08 08:55:36;;;;;;;37.77;25.07;;;;;;;17.59;83.71;102747.91;5093280;28;20172;-73
2021/10/08 08:58:02;;;;;;;35.00;23.67;;;;;;;17.56;84.52;102748.06;5093505;28;20189;-72
2021/10/08 09:00:27;;;;;;;37.53;23.90;;;;;;;17.57;84.26;102746.25;5074932;28;20651;-73
2021/10/08 09:03:00;;;;;;;35.57;24.80;;;;;;;17.03;86.76;102746.25;5074580;28;20746;-73
2021/10/08 09:05:28;;;;;;;38.90;25.13;;;;;;;16.87;88.40;102742.59;5075423;28;20155;-73
2021/10/08 09:08:04;;;;;;;33.67;23.43;;;;;;;17.76;84.50;102749.75;5058058;28;20671;-73
2021/10/08 09:10:31;;;;;;;34.93;25.83;;;;;;;17.25;86.43;102740.66;5093388;28;20161;-72
2021/10/08 09:12:57;;;;;;;35.10;24.20;;;;;;;17.12;86.42;102737.72;5092841;28;20190;-72
2021/10/08 09:15:27;;;;;;;40.90;24.13;;;;;;;17.89;84.95;102753.56;5074783;28;20249;-73
2021/10/08 09:18:08;;;;;;;32.57;23.60;;;;;;;17.60;84.58;102740.69;5075000;28;20151;-72
2021/10/08 09:20:34;;;;;;;33.63;24.63;;;;;;;17.12;86.37;102747.66;5058663;28;20174;-73
2021/10/08 09:22:59;;;;;;;36.97;25.03;;;;;;;17.18;85.14;102734.72;5074944;28;20225;-73
2021/10/08 09:25:30;;;;;;;34.83;23.57;;;;;;;17.42;85.35;102739.78;5075309;28;20651;-73
2021/10/08 09:28:02;;;;;;;35.33;24.03;;;;;;;17.25;84.49;102734.41;5092791;28;20634;-72
2021/10/08 09:30:35;;;;;;;37.07;24.33;;;;;;;17.62;83.13;102741.47;5077478;28;20217;-72
2021/10/08 09:33:00;;;;;;;31.37;21.87;;;;;;;18.26;80.04;102738.91;5079132;28;20202;-74
2021/10/08 09:35:26;;;;;;;36.53;22.40;;;;;;;18.44;78.42;102737.00;5079881;28;20177;-71
2021/10/08 09:38:06;;;;;;;30.40;22.70;;;;;;;18.40;79.46;102736.31;5078702;28;20166;-73
2021/10/08 09:40:33;;;;;;;29.30;21.47;;;;;;;19.09;76.74;102737.81;5078863;28;20151;-72
2021/10/08 09:43:04;;;;;;;24.60;19.80;;;;;;;19.18;75.13;102725.56;5079131;28;20270;-72
2021/10/08 09:45:51;;;;;;;28.47;20.50;;;;;;;18.02;79.31;102722.22;5078873;28;20165;-72
2021/10/08 09:48:25;;;;;;;32.30;21.87;;;;;;;18.30;79.10;102720.69;5079062;28;20194;-72
2021/10/08 09:51:00;;;;;;;31.03;21.33;;;;;;;19.07;76.60;102723.50;5078457;28;20193;-73
2021/10/08 09:53:26;;;;;;;29.93;19.53;;;;;;;19.61;74.41;102722.03;5096934;28;20268;-72
2021/10/08 09:55:52;;;;;;;32.37;22.07;;;;;;;19.08;77.00;102724.38;5097243;28;20644;-72
2021/10/08 09:58:18;;;;;;;29.60;21.70;;;;;;;19.25;75.01;102716.97;5079171;28;20177;-73
2021/10/08 10:01:01;;;;;;;26.73;19.47;;;;;;;19.21;75.21;102722.66;5062025;28;20185;-71
2021/10/08 10:03:27;;;;;;;29.43;20.77;;;;;;;18.92;75.41;102722.53;5078141;28;20194;-72
2021/10/08 10:05:52;;;;;;;22.97;18.37;;;;;;;19.64;73.11;102719.13;5078620;28;20206;-74
2021/10/08 10:08:18;;;;;;;27.20;20.63;;;;;;;19.48;73.04;102706.59;5078281;28;20722;-73
2021/10/08 10:10:45;;;;;;;28.40;19.77;;;;;;;19.09;74.72;102716.16;5096697;28;20607;-72
2021/10/08 10:13:11;;;;;;;28.27;19.67;;;;;;;19.34;71.90;102702.03;5096276;28;20247;-72
2021/10/08 10:15:39;;;;;;;30.43;20.70;;;;;;;18.93;72.64;102708.06;5096331;28;20568;-73
2021/10/08 10:18:05;;;;;;;24.20;18.20;;;;;;;19.46;70.84;102708.53;5078432;28;20166;-73
2021/10/08 10:20:33;;;;;;;24.77;18.47;;;;;;;19.11;72.10;102716.06;5078265;28;20170;-73
2021/10/08 10:22:59;;;;;;;26.80;18.27;;;;;;;19.62;70.05;102709.38;5096108;28;20222;-71
2021/10/08 10:25:24;;;;;;;29.73;19.13;;;;;;;19.60;70.22;102704.03;5078527;28;20170;-74
2021/10/08 10:27:49;;;;;;;25.27;18.23;;;;;;;19.28;70.63;102705.09;5078239;28;20194;-73
2021/10/08 10:30:17;;;;;;;26.53;17.90;;;;;;;19.24;68.98;102692.72;5096734;28;20173;-72
2021/10/08 10:32:45;;;;;;;20.17;16.97;;;;;;;18.89;70.20;102709.19;5062089;28;20190;-73
2021/10/08 10:35:39;;;;;;;23.80;16.83;;;;;;;18.95;69.31;102703.41;5078274;28;20173;-73
2021/10/08 10:38:26;;;;;;;26.00;15.13;;;;;;;19.20;67.63;102704.69;5079163;28;20174;-72
2021/10/08 10:41:19;;;;;;;21.90;15.87;;;;;;;18.84;68.09;102700.47;5098465;28;20173;-73
2021/10/08 10:43:48;;;;;;;22.30;15.33;;;;;;;18.59;68.26;102701.00;5100218;28;20169;-73
2021/10/08 10:52:03;;;;;;;29.73;15.53;;;;;;;19.38;66.34;102694.59;5101003;28;20212;-73
2021/10/08 10:54:35;;;;;;;22.27;15.30;;;;;;;19.89;64.51;102683.28;5096511;28;20615;-74
2021/10/08 10:57:05;;;;;;;20.70;15.03;;;;;;;19.56;64.96;102678.13;5095538;28;20177;-72
2021/10/08 10:59:34;;;;;;;23.23;15.33;;;;;;;19.00;65.48;102674.28;5095317;28;20241;-72
2021/10/08 11:02:04;;;;;;;22.07;14.83;;;;;;;19.35;65.06;102680.28;5077237;28;20243;-73
2021/10/08 11:04:30;;;;;;;24.90;15.97;;;;;;;19.19;64.95;102670.47;5077199;28;20194;-71
2021/10/08 11:07:06;;;;;;;25.53;15.87;;;;;;;19.94;64.69;102691.09;5077052;28;20232;-72
2021/10/08 11:09:31;;;;;;;24.60;15.57;;;;;;;19.48;65.45;102676.81;5077076;28;20636;-73
2021/10/08 11:12:36;;;;;;;23.57;15.23;;;;;;;19.74;63.78;102673.41;5077545;28;20201;-72